createdAt,value
2018-12-19T00:01:13.275Z,69.01
2018-12-19T00:04:17.137Z,68.89
2018-12-19T00:07:21.025Z,69.24
2018-12-19T00:10:22.927Z,69.26
2018-12-19T00:13:25.726Z,68.90
2018-12-19T00:16:27.521Z,69.24
2018-12-19T00:19:29.212Z,68.68
2018-12-19T00:22:31.120Z,68.54
2018-12-19T00:25:32.810Z,68.75
2018-12-19T00:28:36.659Z,68.57
2018-12-19T00:31:40.485Z,68.76
2018-12-19T00:34:44.298Z,68.47
2018-12-19T00:37:46.070Z,68.56
2018-12-19T00:41:15.355Z,68.29
2018-12-19T00:44:17.432Z,67.98
2018-12-19T00:47:19.247Z,67.84
2018-12-19T00:50:20.992Z,68.32
2018-12-19T00:53:22.876Z,67.87
2018-12-19T00:56:24.727Z,67.53
2018-12-19T00:59:26.581Z,67.40
2018-12-19T01:02:28.326Z,67.42
2018-12-19T01:05:30.124Z,67.70
2018-12-19T01:08:31.855Z,67.47
2018-12-19T01:11:33.703Z,67.77
2018-12-19T01:14:36.544Z,68.05
2018-12-19T01:17:38.334Z,67.51
2018-12-19T01:20:40.115Z,67.47
2018-12-19T01:23:41.890Z,67.52
2018-12-19T01:26:43.610Z,67.16
2018-12-19T01:29:45.496Z,67.27
2018-12-19T01:32:47.405Z,66.91
2018-12-19T01:35:49.186Z,67.15
2018-12-19T01:38:50.954Z,66.70
2018-12-19T01:41:52.797Z,66.81
2018-12-19T01:44:54.807Z,66.77
2018-12-19T01:47:56.561Z,66.45
2018-12-19T01:50:58.283Z,66.54
2018-12-19T01:54:00.179Z,66.71
2018-12-19T01:57:01.917Z,66.84
2018-12-19T02:00:04.105Z,66.97
2018-12-19T02:03:05.901Z,67.16
2018-12-19T02:06:07.780Z,67.36
2018-12-19T02:09:09.537Z,67.01
2018-12-19T02:12:12.267Z,67.53
2018-12-19T02:15:14.157Z,67.84
2018-12-19T02:18:16.099Z,69.05
2018-12-19T02:21:17.846Z,69.43
2018-12-19T02:24:19.650Z,69.21
2018-12-19T02:27:21.408Z,69.07
2018-12-19T02:30:23.209Z,69.19
2018-12-19T02:33:24.976Z,68.60
2018-12-19T02:36:26.784Z,68.22
2018-12-19T02:39:28.509Z,68.46
2018-12-19T02:42:30.265Z,68.38
2018-12-19T02:45:32.081Z,68.67
2018-12-19T02:48:33.903Z,68.46
2018-12-19T02:51:35.734Z,68.51
2018-12-19T02:54:37.464Z,68.65
2018-12-19T02:57:39.264Z,68.45
2018-12-19T03:00:41.016Z,68.76
2018-12-19T03:03:42.801Z,68.79
2018-12-19T03:06:44.577Z,69.34
2018-12-19T03:09:46.333Z,69.57
2018-12-19T03:12:48.127Z,69.68
2018-12-19T03:15:49.930Z,69.00
2018-12-19T03:18:51.754Z,69.24
2018-12-19T03:21:53.500Z,69.12
2018-12-19T03:24:55.247Z,68.79
2018-12-19T03:27:56.983Z,68.16
2018-12-19T03:30:58.756Z,68.01
2018-12-19T03:34:02.502Z,67.89
2018-12-19T03:37:04.317Z,67.96
2018-12-19T03:40:06.312Z,68.24
2018-12-19T03:43:08.076Z,68.02
2018-12-19T03:46:09.981Z,67.63
2018-12-19T03:49:11.825Z,67.48
2018-12-19T03:52:13.671Z,66.93
2018-12-19T03:55:15.505Z,66.90
2018-12-19T03:58:17.333Z,66.54
2018-12-19T04:01:19.345Z,66.93
2018-12-19T04:04:21.163Z,67.12
2018-12-19T04:07:22.964Z,67.49
2018-12-19T04:10:24.666Z,67.26
2018-12-19T04:13:26.453Z,67.50
2018-12-19T04:16:28.433Z,67.28
2018-12-19T04:19:30.306Z,67.90
2018-12-19T04:22:41.166Z,68.19
2018-12-19T04:25:43.000Z,68.33
2018-12-19T04:28:45.017Z,68.39
2018-12-19T04:31:46.837Z,68.39
2018-12-19T04:34:48.656Z,68.29
2018-12-19T04:37:50.377Z,68.20
2018-12-19T04:40:52.156Z,67.97
2018-12-19T04:43:53.924Z,68.47
2018-12-19T04:47:02.817Z,68.39
2018-12-19T04:50:04.716Z,68.39
2018-12-19T04:53:06.535Z,68.43
2018-12-19T04:56:08.294Z,68.64
2018-12-19T04:59:10.090Z,68.50
2018-12-19T05:02:12.105Z,68.22
2018-12-19T05:05:13.920Z,68.02
2018-12-19T05:08:15.655Z,67.88
2018-12-19T05:11:17.402Z,68.29
2018-12-19T05:14:19.296Z,68.23
2018-12-19T05:17:21.205Z,68.02
2018-12-19T05:23:57.062Z,67.59
2018-12-19T05:26:58.862Z,67.59
2018-12-19T05:30:00.682Z,67.43
2018-12-19T05:33:02.515Z,67.44
2018-12-19T05:36:04.332Z,67.20
2018-12-19T05:39:06.114Z,67.21
2018-12-19T05:42:07.860Z,67.11
2018-12-19T05:45:09.553Z,67.06
2018-12-19T05:48:11.288Z,67.29
2018-12-19T05:51:13.101Z,67.04
2018-12-19T05:54:14.987Z,67.20
2018-12-19T05:57:17.353Z,67.32
2018-12-19T06:00:22.157Z,67.70
2018-12-19T06:03:25.882Z,67.82
2018-12-19T06:06:27.616Z,68.21
2018-12-19T06:09:29.511Z,68.18
2018-12-19T06:12:31.305Z,68.25
2018-12-19T06:15:33.065Z,68.34
2018-12-19T06:18:34.835Z,68.63
2018-12-19T06:21:36.732Z,68.77
2018-12-19T06:24:38.625Z,68.54
2018-12-19T06:27:40.404Z,68.76
2018-12-19T06:30:42.200Z,68.99
2018-12-19T06:33:44.495Z,69.11
2018-12-19T06:36:53.233Z,68.83
2018-12-19T06:39:54.971Z,68.99
2018-12-19T06:42:56.681Z,69.03
2018-12-19T06:45:58.523Z,68.73
2018-12-19T06:49:00.353Z,68.40
2018-12-19T06:52:02.695Z,68.50
2018-12-19T06:55:04.655Z,68.49
2018-12-19T06:58:06.350Z,68.42
2018-12-19T07:01:08.111Z,68.56
2018-12-19T07:04:09.852Z,68.38
2018-12-19T07:07:11.569Z,67.85
2018-12-19T07:10:13.485Z,67.38
2018-12-19T07:13:15.391Z,66.86
2018-12-19T07:16:17.277Z,66.11
2018-12-19T07:19:19.070Z,65.12
2018-12-19T07:22:20.922Z,64.14
2018-12-19T07:25:22.693Z,64.24
2018-12-19T07:28:24.511Z,64.25
2018-12-19T07:31:26.299Z,64.80
2018-12-19T07:34:28.167Z,65.07
2018-12-19T07:37:29.886Z,64.76
2018-12-19T07:40:31.861Z,65.38
2018-12-19T07:43:33.647Z,65.54
2018-12-19T07:46:35.821Z,65.00
2018-12-19T07:49:44.729Z,63.85
2018-12-19T07:52:46.977Z,63.38
2018-12-19T07:55:49.334Z,62.07
2018-12-19T07:58:52.471Z,60.97
2018-12-19T08:01:54.392Z,59.03
2018-12-19T08:04:56.433Z,57.49
2018-12-19T08:07:58.274Z,56.68
2018-12-19T08:11:00.279Z,55.76
2018-12-19T08:14:02.805Z,54.37
2018-12-19T08:17:04.608Z,53.93
2018-12-19T08:20:06.729Z,53.14
2018-12-19T08:23:08.778Z,53.20
2018-12-19T08:26:10.645Z,56.73
2018-12-19T08:29:12.924Z,59.17
2018-12-19T08:32:14.671Z,60.68
2018-12-19T08:35:16.453Z,61.29
2018-12-19T08:38:18.204Z,61.91
2018-12-19T08:41:20.033Z,62.11
2018-12-19T08:44:21.826Z,62.51
2018-12-19T08:47:23.655Z,62.31
2018-12-19T08:50:25.587Z,61.78
2018-12-19T08:53:27.525Z,61.10
2018-12-19T08:56:29.412Z,61.05
2018-12-19T08:59:31.284Z,60.93
2018-12-19T09:02:33.065Z,60.36
2018-12-19T09:05:34.802Z,57.66
2018-12-19T09:08:36.623Z,54.14
2018-12-19T09:11:38.383Z,53.02
2018-12-19T09:14:40.223Z,54.33
2018-12-19T09:17:42.025Z,55.22
2018-12-19T09:20:45.271Z,56.18
2018-12-19T09:23:47.148Z,57.95
2018-12-19T09:26:48.960Z,59.56
2018-12-19T09:29:50.875Z,60.79
2018-12-19T09:32:52.818Z,61.07
2018-12-19T09:35:54.624Z,61.14
2018-12-19T09:38:56.445Z,61.70
2018-12-19T09:41:58.346Z,61.43
2018-12-19T09:45:00.105Z,61.06
2018-12-19T09:48:01.907Z,61.25
2018-12-19T09:51:03.988Z,61.42
2018-12-19T09:54:05.898Z,61.30
2018-12-19T09:57:07.798Z,60.66
2018-12-19T10:00:12.498Z,60.29
2018-12-19T10:03:14.438Z,60.53
2018-12-19T10:06:16.842Z,60.21
2018-12-19T10:09:18.611Z,60.34
2018-12-19T10:12:20.533Z,60.56
2018-12-19T10:15:22.771Z,60.35
2018-12-19T10:18:24.671Z,60.47
2018-12-19T10:21:26.668Z,60.53
2018-12-19T10:24:34.425Z,60.68
2018-12-19T10:27:36.280Z,60.67
2018-12-19T10:30:44.052Z,60.97
2018-12-19T10:33:45.832Z,60.94
2018-12-19T10:36:47.655Z,61.02
2018-12-19T10:39:49.477Z,60.76
2018-12-19T10:42:51.482Z,61.11
2018-12-19T10:45:53.390Z,60.59
2018-12-19T10:48:55.168Z,60.70
2018-12-19T10:51:57.029Z,60.82
2018-12-19T10:54:58.828Z,61.06
2018-12-19T10:58:00.647Z,61.21
2018-12-19T11:01:02.568Z,61.37
2018-12-19T11:04:04.526Z,61.62
2018-12-19T11:07:06.276Z,61.37
2018-12-19T11:10:08.249Z,61.30
2018-12-19T11:13:10.034Z,61.44
2018-12-19T11:16:11.812Z,61.00
2018-12-19T11:19:13.548Z,61.28
2018-12-19T11:22:15.351Z,61.32
2018-12-19T11:25:17.109Z,61.00
2018-12-19T11:28:18.899Z,61.22
2018-12-19T11:31:21.789Z,61.65
2018-12-19T11:34:23.624Z,61.92
2018-12-19T11:37:25.497Z,61.77
2018-12-19T11:40:27.262Z,62.01
2018-12-19T11:43:29.074Z,61.88
2018-12-19T11:46:30.854Z,62.03
2018-12-19T11:49:32.731Z,61.65
2018-12-19T11:52:34.686Z,61.68
2018-12-19T11:55:36.508Z,61.47
2018-12-19T11:58:38.300Z,61.33
2018-12-19T12:01:41.499Z,61.28
2018-12-19T12:04:43.579Z,61.18
2018-12-19T12:07:47.421Z,60.71
2018-12-19T12:10:49.158Z,61.10
2018-12-19T12:13:50.980Z,61.11
2018-12-19T12:16:52.761Z,60.71
2018-12-19T12:19:54.632Z,60.40
2018-12-19T12:22:56.464Z,60.20
2018-12-19T12:26:05.236Z,60.36
2018-12-19T12:29:07.118Z,59.96
2018-12-19T12:32:08.995Z,60.35
2018-12-19T12:35:10.908Z,60.09
2018-12-19T12:38:12.685Z,59.62
2018-12-19T12:41:14.400Z,59.63
2018-12-19T12:44:16.224Z,59.29
2018-12-19T12:47:18.050Z,59.39
2018-12-19T12:50:19.799Z,59.30
2018-12-19T12:53:21.672Z,59.27
2018-12-19T12:56:23.507Z,59.30
2018-12-19T12:59:25.217Z,59.21
2018-12-19T13:02:27.061Z,59.46
2018-12-19T13:05:28.909Z,59.70
2018-12-19T13:08:30.622Z,59.92
2018-12-19T13:11:32.400Z,60.31
2018-12-19T13:14:34.241Z,59.87
2018-12-19T13:17:36.054Z,60.30
2018-12-19T13:20:37.971Z,60.29
2018-12-19T13:23:39.711Z,60.60
2018-12-19T13:26:41.579Z,60.62
2018-12-19T13:29:43.557Z,60.63
2018-12-19T13:32:45.993Z,60.73
2018-12-19T13:35:47.838Z,60.29
2018-12-19T13:38:49.686Z,60.12
2018-12-19T13:41:51.463Z,59.33
2018-12-19T13:44:53.342Z,59.67
2018-12-19T13:47:55.287Z,59.16
2018-12-19T13:50:57.228Z,59.30
2018-12-19T13:53:59.026Z,59.21
2018-12-19T13:57:01.114Z,59.49
2018-12-19T14:00:05.650Z,59.26
2018-12-19T14:03:07.583Z,59.25
2018-12-19T14:06:09.299Z,58.66
2018-12-19T14:09:11.490Z,59.09
2018-12-19T14:12:13.340Z,58.94
2018-12-19T14:15:15.279Z,58.84
2018-12-19T14:18:17.159Z,59.08
2018-12-19T14:21:18.952Z,58.85
2018-12-19T14:24:20.836Z,58.72
2018-12-19T14:27:22.566Z,58.79
2018-12-19T14:30:24.425Z,58.48
2018-12-19T14:33:26.298Z,58.18
2018-12-19T14:36:28.192Z,58.50
2018-12-19T14:39:30.098Z,58.37
2018-12-19T14:42:32.003Z,58.71
2018-12-19T14:45:33.971Z,58.80
2018-12-19T14:48:35.810Z,58.81
2018-12-19T14:51:39.034Z,58.35
2018-12-19T14:54:40.905Z,58.74
2018-12-19T14:57:42.679Z,58.52
2018-12-19T15:00:44.578Z,58.82
2018-12-19T15:03:46.385Z,58.63
2018-12-19T15:06:48.148Z,58.66
2018-12-19T15:09:50.074Z,58.48
2018-12-19T15:12:52.372Z,58.05
2018-12-19T15:16:00.199Z,57.88
2018-12-19T15:19:02.097Z,58.03
2018-12-19T15:22:03.908Z,58.45
2018-12-19T15:25:06.053Z,58.76
2018-12-19T15:28:07.984Z,58.47
2018-12-19T15:31:09.758Z,58.69
2018-12-19T15:34:11.518Z,58.38
2018-12-19T15:37:13.795Z,58.62
2018-12-19T15:40:15.585Z,58.52
2018-12-19T15:43:17.657Z,58.37
2018-12-19T15:46:19.499Z,58.52
2018-12-19T15:49:21.359Z,58.42
2018-12-19T15:52:23.340Z,57.58
2018-12-19T15:55:25.321Z,57.63
2018-12-19T15:58:27.069Z,56.82
2018-12-19T16:01:28.929Z,56.79
2018-12-19T16:04:30.853Z,56.27
2018-12-19T16:07:32.864Z,56.62
2018-12-19T16:10:34.775Z,56.30
2018-12-19T16:13:36.573Z,55.73
2018-12-19T16:16:38.456Z,55.65
2018-12-19T16:19:40.345Z,55.47
2018-12-19T16:22:42.168Z,55.43
2018-12-19T16:25:44.144Z,55.48
2018-12-19T16:28:45.951Z,55.21
2018-12-19T16:31:47.804Z,55.21
2018-12-19T16:34:49.676Z,55.24
2018-12-19T16:37:51.565Z,55.04
2018-12-19T16:40:53.385Z,55.25
2018-12-19T16:43:56.364Z,54.76
2018-12-19T16:46:58.118Z,54.79
2018-12-19T16:49:59.914Z,55.09
2018-12-19T16:53:01.629Z,55.04
2018-12-19T16:56:04.613Z,54.95
2018-12-19T16:59:06.377Z,54.93
2018-12-19T17:02:08.933Z,55.02
2018-12-19T17:05:10.716Z,54.98
2018-12-19T17:08:13.621Z,55.40
2018-12-19T17:11:15.440Z,55.55
2018-12-19T17:14:17.476Z,55.26
2018-12-19T17:17:19.371Z,55.29
2018-12-19T17:20:21.280Z,55.22
2018-12-19T17:23:23.235Z,55.24
2018-12-19T17:26:25.294Z,55.18
2018-12-19T17:29:28.263Z,55.42
2018-12-19T17:32:30.365Z,55.26
2018-12-19T17:35:32.703Z,55.08
2018-12-19T17:38:34.927Z,55.42
2018-12-19T17:41:52.230Z,55.37
2018-12-19T17:44:54.418Z,55.41
2018-12-19T17:47:56.458Z,55.44
2018-12-19T17:50:58.474Z,55.09
2018-12-19T17:54:00.434Z,55.03
2018-12-19T17:57:02.429Z,54.97
2018-12-19T18:00:05.037Z,54.97
2018-12-19T18:03:07.147Z,55.11
2018-12-19T18:06:09.133Z,55.18
2018-12-19T18:09:11.300Z,54.89
2018-12-19T18:12:13.344Z,54.90
2018-12-19T18:15:15.376Z,55.36
2018-12-19T18:18:17.436Z,55.15
2018-12-19T18:21:20.587Z,55.28
2018-12-19T18:24:22.950Z,55.27
2018-12-19T18:27:25.037Z,55.29
2018-12-19T18:30:27.250Z,54.87
2018-12-19T18:33:29.349Z,55.31
2018-12-19T18:36:31.440Z,54.96
2018-12-19T18:39:33.432Z,55.16
2018-12-19T18:42:35.669Z,55.00
2018-12-19T18:45:37.653Z,55.11
2018-12-19T18:48:39.777Z,54.81
2018-12-19T18:51:41.786Z,55.08
2018-12-19T18:54:43.697Z,54.95
2018-12-19T18:57:45.686Z,55.14
2018-12-19T19:00:49.792Z,55.58
2018-12-19T19:03:51.843Z,55.64
2018-12-19T19:06:53.964Z,55.32
2018-12-19T19:09:55.992Z,55.55
2018-12-19T19:12:58.035Z,55.41
2018-12-19T19:16:01.547Z,55.43
2018-12-19T19:19:04.441Z,55.64
2018-12-19T19:22:06.578Z,55.45
2018-12-19T19:25:09.030Z,55.89
2018-12-19T19:28:11.166Z,55.63
2018-12-19T19:31:13.506Z,55.40
2018-12-19T19:34:16.037Z,55.82
2018-12-19T19:37:18.073Z,55.59
2018-12-19T19:40:21.225Z,55.28
2018-12-19T19:43:26.710Z,55.86
2018-12-19T19:46:31.695Z,55.99
2018-12-19T19:49:36.568Z,55.46
2018-12-19T19:52:39.585Z,55.62
2018-12-19T19:55:42.715Z,55.84
2018-12-19T19:58:48.065Z,55.83
2018-12-19T20:01:50.547Z,55.65
2018-12-19T20:04:54.308Z,55.39
2018-12-19T20:07:56.403Z,55.55
2018-12-19T20:10:58.601Z,55.53
2018-12-19T20:14:01.630Z,55.57
2018-12-19T20:17:04.186Z,55.63
2018-12-19T20:20:07.534Z,55.64
2018-12-19T20:23:09.593Z,56.10
2018-12-19T20:26:11.991Z,56.17
2018-12-19T20:29:14.136Z,55.95
2018-12-19T20:32:16.280Z,55.99
2018-12-19T20:35:19.595Z,56.21
2018-12-19T20:38:21.788Z,56.08
2018-12-19T20:41:23.955Z,56.15
2018-12-19T20:44:26.075Z,56.45
2018-12-19T20:47:29.107Z,56.77
2018-12-19T20:50:32.087Z,56.72
2018-12-19T20:53:35.291Z,56.57
2018-12-19T20:56:38.667Z,56.61
2018-12-19T20:59:41.663Z,56.72
2018-12-19T21:02:44.123Z,56.68
2018-12-19T21:05:53.238Z,56.52
2018-12-19T21:08:55.240Z,56.63
2018-12-19T21:11:57.468Z,57.11
2018-12-19T21:14:59.518Z,56.67
2018-12-19T21:18:07.616Z,56.70
2018-12-19T21:21:09.699Z,57.00
2018-12-19T21:24:11.793Z,56.75
2018-12-19T21:27:13.811Z,56.83
2018-12-19T21:30:15.890Z,56.38
2018-12-19T21:33:18.583Z,56.43
2018-12-19T21:36:20.682Z,56.29
2018-12-19T21:39:22.718Z,56.38
2018-12-19T21:42:24.723Z,56.24
2018-12-19T21:45:26.599Z,56.38
2018-12-19T21:48:28.704Z,56.29
2018-12-19T21:51:30.471Z,55.90
2018-12-19T21:54:32.510Z,55.57
2018-12-19T21:57:41.639Z,55.72
2018-12-19T22:00:43.463Z,55.98
2018-12-19T22:03:45.247Z,55.86
2018-12-19T22:06:47.056Z,55.84
2018-12-19T22:09:48.945Z,55.40
2018-12-19T22:12:50.928Z,55.63
2018-12-19T22:15:52.791Z,55.24
2018-12-19T22:18:56.766Z,55.11
2018-12-19T22:21:58.708Z,55.34
2018-12-19T22:34:22.016Z,55.47
2018-12-19T22:37:26.311Z,55.60
2018-12-19T22:54:11.076Z,54.88
2018-12-19T22:57:13.235Z,54.82
2018-12-19T23:00:24.274Z,54.63
2018-12-19T23:03:31.550Z,54.60
2018-12-19T23:06:34.207Z,54.53
2018-12-19T23:14:15.362Z,54.65
2018-12-19T23:17:25.945Z,54.62
2018-12-19T23:20:34.217Z,55.20
2018-12-19T23:23:42.172Z,55.78
2018-12-19T23:26:46.499Z,56.53
2018-12-19T23:29:50.511Z,56.93
2018-12-19T23:32:52.514Z,57.29
2018-12-19T23:35:54.325Z,56.50
2018-12-19T23:38:56.072Z,56.33
2018-12-19T23:41:57.888Z,56.10
2018-12-19T23:44:59.723Z,55.53
2018-12-19T23:48:01.713Z,55.22
2018-12-19T23:51:03.756Z,55.03
2018-12-19T23:54:05.725Z,55.21
2018-12-19T23:57:08.024Z,54.88
